Time;durP1;ratioP1;P1;durP2;ratioP2;P2;SDS_P1;SDS_P2;PMS_P1;PMS_P2;Temp;Humidity;BMP_temperature;BMP_pressure;BME280_temperature;BME280_humidity;BME280_pressure;Samples;Min_cycle;Max_cycle;Signal;HPM_P1;HPM_P2
2021/08/03 00:00:07;;;;;;;;;;;;;;;13.33;80.69;96867.44;30001;982;1788;-72
2021/08/03 00:00:39;;;;;;;;;;;;;;;13.34;80.77;96875.31;30001;982;1867;-71
2021/08/03 00:01:10;;;;;;;;;;;;;;;13.33;80.92;96868.25;30001;982;1876;-73
2021/08/03 00:01:41;;;;;;;;;;;;;;;13.32;80.88;96871.28;30001;982;1885;-74
2021/08/03 00:02:13;;;;;;;;;;;;;;;13.31;80.95;96875.94;30001;983;1879;-73
2021/08/03 00:02:45;;;;;;;;;;;;;;;13.30;81.08;96868.87;30001;983;1884;-74
2021/08/03 00:03:16;;;;;;;;;;;;;;;13.30;80.88;96873.53;30001;983;1862;-71
2021/08/03 00:03:59;;;;;;;;;;;;;;;13.30;81.12;96874.31;30001;983;1880;-73
2021/08/03 00:04:41;;;;;;;;;;;;;;;13.32;80.97;96872.09;30001;983;1880;-71
2021/08/03 00:05:16;;;;;;;;;;;;;;;13.32;80.90;96874.81;30001;983;1884;-72
2021/08/03 00:05:50;;;;;;;;;;;;;;;13.31;81.13;96870.50;30001;983;1880;-72
2021/08/03 00:06:22;;;;;;;;;;;;;;;13.33;80.99;96865.53;30001;982;1885;-72
2021/08/03 00:06:55;;;;;;;;;;;;;;;13.34;81.14;96869.88;30001;982;1880;-71
2021/08/03 00:07:26;;;;;;;;;;;;;;;13.34;80.98;96880.78;30001;982;1885;-71
2021/08/03 00:08:01;;;;;;;;;;;;;;;13.35;81.17;96871.47;30001;982;1863;-74
2021/08/03 00:08:37;;;;;;;;;;;;;;;13.35;80.84;96868.75;30001;982;1880;-74
2021/08/03 00:09:09;;;;;;;;;;;;;;;13.38;80.81;96870.84;30001;965;1894;-73
2021/08/03 00:09:40;;;;;;;;;;;;;;;13.39;80.40;96872.47;30001;983;1884;-71
2021/08/03 00:10:11;;;;;;;;;;;;;;;13.39;80.26;96877.91;30001;983;1880;-73
2021/08/03 00:10:42;;;;;;;;;;;;;;;13.40;80.29;96871.34;30001;983;1867;-70
2021/08/03 00:11:13;;;;;;;;;;;;;;;13.40;80.62;96874.06;30001;983;1858;-72
2021/08/03 00:11:45;;;;;;;;;;;;;;;13.41;81.08;96877.63;30001;983;1885;-71
2021/08/03 00:12:16;;;;;;;;;;;;;;;13.41;81.22;96870.25;30001;983;1880;-71
2021/08/03 00:12:51;;;;;;;;;;;;;;;13.41;81.46;96874.88;30001;983;1884;-70
2021/08/03 00:13:24;;;;;;;;;;;;;;;13.40;81.80;96874.06;30001;983;1880;-71
2021/08/03 00:13:58;;;;;;;;;;;;;;;13.40;81.53;96873.28;30001;982;1884;-72
2021/08/03 00:14:30;;;;;;;;;;;;;;;13.40;81.32;96868.63;30001;982;1862;-72
2021/08/03 00:15:01;;;;;;;;;;;;;;;13.41;81.19;96869.44;30001;982;1880;-72
2021/08/03 00:15:33;;;;;;;;;;;;;;;13.40;81.10;96871.34;30001;982;1880;-73
2021/08/03 00:16:08;;;;;;;;;;;;;;;13.41;81.20;96875.69;30001;982;1885;-71
2021/08/03 00:16:40;;;;;;;;;;;;;;;13.43;81.12;96867.19;30001;982;1881;-73
2021/08/03 00:17:13;;;;;;;;;;;;;;;13.47;80.86;96870.13;30001;983;1884;-70
2021/08/03 00:17:44;;;;;;;;;;;;;;;13.48;80.81;96869.00;30001;983;1880;-72
2021/08/03 00:18:16;;;;;;;;;;;;;;;13.47;81.10;96867.38;30001;983;1884;-69
2021/08/03 00:18:48;;;;;;;;;;;;;;;13.45;80.72;96866.91;30001;983;1880;-71
2021/08/03 00:19:23;;;;;;;;;;;;;;;13.43;80.83;96869.13;30001;983;1884;-72
2021/08/03 00:19:54;;;;;;;;;;;;;;;13.44;80.73;96862.56;30001;983;1863;-71
2021/08/03 00:20:26;;;;;;;;;;;;;;;13.43;80.61;96861.75;30001;983;1880;-72
2021/08/03 00:20:57;;;;;;;;;;;;;;;13.43;80.64;96867.19;30001;983;1880;-71
2021/08/03 00:21:28;;;;;;;;;;;;;;;13.44;80.62;96865.28;30001;982;1885;-72
2021/08/03 00:21:59;;;;;;;;;;;;;;;13.44;80.66;96857.09;30001;982;1880;-71
2021/08/03 00:22:30;;;;;;;;;;;;;;;13.45;80.37;96861.44;30001;982;1885;-75
2021/08/03 00:23:01;;;;;;;;;;;;;;;13.46;80.47;96860.31;30001;982;1881;-74
2021/08/03 00:23:33;;;;;;;;;;;;;;;13.46;79.85;96854.88;30001;982;1885;-73
2021/08/03 00:24:06;;;;;;;;;;;;;;;13.48;79.82;96855.38;30001;983;1862;-70
2021/08/03 00:24:37;;;;;;;;;;;;;;;13.48;80.07;96852.66;30001;983;1880;-74
2021/08/03 00:25:10;;;;;;;;;;;;;;;13.47;80.22;96861.94;30001;983;1880;-74
2021/08/03 00:25:41;;;;;;;;;;;;;;;13.47;80.35;96856.47;30001;983;1884;-72
2021/08/03 00:26:12;;;;;;;;;;;;;;;13.44;80.63;96852.47;30001;983;1880;-74
2021/08/03 00:26:43;;;;;;;;;;;;;;;13.46;80.27;96861.13;30001;983;1884;-74
2021/08/03 00:27:14;;;;;;;;;;;;;;;13.48;80.01;96863.56;30001;983;1880;-76
2021/08/03 00:27:45;;;;;;;;;;;;;;;13.48;79.95;96852.66;30001;983;1884;-74
2021/08/03 00:28:17;;;;;;;;;;;;;;;13.48;79.98;96858.09;30001;983;1880;-74
2021/08/03 00:28:50;;;;;;;;;;;;;;;13.49;79.83;96854.25;30001;983;1867;-72
2021/08/03 00:29:21;;;;;;;;;;;;;;;13.50;79.84;96853.13;30001;982;1876;-73
2021/08/03 00:29:52;;;;;;;;;;;;;;;13.49;79.89;96851.53;30001;982;1885;-73
2021/08/03 00:30:24;;;;;;;;;;;;;;;13.50;80.01;96855.88;30001;982;1880;-73
2021/08/03 00:30:55;;;;;;;;;;;;;;;13.51;79.84;96857.47;30001;982;1885;-71
2021/08/03 00:31:26;;;;;;;;;;;;;;;13.51;79.73;96852.03;30001;983;1880;-72
2021/08/03 00:31:58;;;;;;;;;;;;;;;13.50;79.56;96855.88;30001;983;1867;-73
2021/08/03 00:32:30;;;;;;;;;;;;;;;13.50;80.04;96855.88;30001;983;1876;-73
2021/08/03 00:33:01;;;;;;;;;;;;;;;13.49;79.98;96854.25;30001;983;1867;-71
2021/08/03 00:33:32;;;;;;;;;;;;;;;13.48;80.01;96852.66;30001;983;1876;-74
2021/08/03 00:34:03;;;;;;;;;;;;;;;13.46;80.01;96849.44;30001;983;1884;-73
2021/08/03 00:34:38;;;;;;;;;;;;;;;13.47;80.21;96851.03;30001;983;1880;-77
2021/08/03 00:35:08;;;;;;;;;;;;;;;13.45;80.06;96847.81;30001;983;1885;-75
2021/08/03 00:35:40;;;;;;;;;;;;;;;13.44;79.96;96848.94;30001;983;1881;-74
2021/08/03 00:36:11;;;;;;;;;;;;;;;13.42;80.07;96849.25;30001;983;1884;-74
2021/08/03 00:36:42;;;;;;;;;;;;;;;13.41;80.20;96848.44;30001;982;1863;-74
2021/08/03 00:37:14;;;;;;;;;;;;;;;13.41;80.10;96850.34;30001;982;1880;-73
2021/08/03 00:37:45;;;;;;;;;;;;;;;13.40;80.12;96846.81;30001;982;1880;-71
2021/08/03 00:38:16;;;;;;;;;;;;;;;13.40;80.35;96852.28;30001;982;1885;-74
2021/08/03 00:38:47;;;;;;;;;;;;;;;13.38;80.45;96849.06;30001;982;1881;-66
2021/08/03 00:39:18;;;;;;;;;;;;;;;13.37;80.27;96852.09;30001;983;1884;-73
2021/08/03 00:39:49;;;;;;;;;;;;;;;13.36;80.44;96853.22;30001;983;1880;-72
2021/08/03 00:40:22;;;;;;;;;;;;;;;13.35;80.53;96854.31;30001;983;1867;-73
2021/08/03 00:40:55;;;;;;;;;;;;;;;13.35;80.59;96848.88;30001;983;1876;-75
2021/08/03 00:41:29;;;;;;;;;;;;;;;13.35;80.60;96852.41;30001;983;1884;-63
2021/08/03 00:42:01;;;;;;;;;;;;;;;13.35;80.53;96855.13;30001;986;1850;-73
2021/08/03 00:42:32;;;;;;;;;;;;;;;13.35;80.49;96849.69;30001;983;1876;-63
2021/08/03 00:43:03;;;;;;;;;;;;;;;13.35;80.73;96849.69;30001;983;1876;-71
2021/08/03 00:43:34;;;;;;;;;;;;;;;13.35;80.39;96854.31;30001;983;1880;-76
2021/08/03 00:44:05;;;;;;;;;;;;;;;13.34;80.70;96842.62;30001;973;1885;-74
2021/08/03 00:44:40;;;;;;;;;;;;;;;13.34;80.45;96848.06;30001;982;1880;-74
2021/08/03 00:45:11;;;;;;;;;;;;;;;13.35;80.41;96848.88;30001;982;1876;-76
2021/08/03 00:45:42;;;;;;;;;;;;;;;13.36;80.52;96856.72;30001;982;1880;-67
2021/08/03 00:46:16;;;;;;;;;;;;;;;13.35;80.35;96844.22;30001;982;1876;-73
2021/08/03 00:46:48;;;;;;;;;;;;;;;13.37;80.35;96841.19;30001;965;1880;-72
2021/08/03 00:47:20;;;;;;;;;;;;;;;13.35;80.27;96841.50;30001;983;1871;-75
2021/08/03 00:47:51;;;;;;;;;;;;;;;13.33;80.48;96841.00;30001;986;1880;-73
2021/08/03 00:48:23;;;;;;;;;;;;;;;13.31;80.53;96845.97;30001;983;1876;-75
2021/08/03 00:48:54;;;;;;;;;;;;;;;13.32;80.47;96841.31;30001;983;1880;-66
2021/08/03 00:49:25;;;;;;;;;;;;;;;13.31;80.72;96845.97;30001;983;1876;-75
2021/08/03 00:49:55;;;;;;;;;;;;;;;13.31;80.50;96848.69;30001;983;1863;-76
2021/08/03 00:50:26;;;;;;;;;;;;;;;13.31;80.43;96845.97;30001;983;1871;-74
2021/08/03 00:50:57;;;;;;;;;;;;;;;13.33;80.47;96845.66;30001;983;1880;-78
2021/08/03 00:51:28;;;;;;;;;;;;;;;13.34;80.39;96836.34;30001;983;1876;-75
2021/08/03 00:51:59;;;;;;;;;;;;;;;13.34;80.28;96839.88;30001;982;1880;-77
2021/08/03 00:52:30;;;;;;;;;;;;;;;13.36;80.60;96845.03;30001;982;1876;-76
2021/08/03 00:53:02;;;;;;;;;;;;;;;13.35;80.08;96837.97;30001;982;1880;-74
2021/08/03 00:53:33;;;;;;;;;;;;;;;13.34;80.47;96839.88;30001;982;1876;-74
2021/08/03 00:54:03;;;;;;;;;;;;;;;13.34;80.46;96841.81;30001;983;1880;-77
2021/08/03 00:54:34;;;;;;;;;;;;;;;13.33;80.47;96841.00;30001;983;1875;-74
2021/08/03 00:55:06;;;;;;;;;;;;;;;13.33;80.49;96843.72;30001;983;1862;-73
2021/08/03 00:55:40;;;;;;;;;;;;;;;13.31;80.78;96842.44;30001;983;1871;-74
2021/08/03 00:56:12;;;;;;;;;;;;;;;13.30;80.68;96847.06;30001;983;1880;-74
2021/08/03 00:56:44;;;;;;;;;;;;;;;13.28;80.72;96841.12;30001;983;1876;-74
2021/08/03 00:57:15;;;;;;;;;;;;;;;13.28;80.73;96837.59;30001;983;1880;-75
2021/08/03 00:57:47;;;;;;;;;;;;;;;13.28;80.74;96843.84;30001;983;1876;-74
2021/08/03 00:58:18;;;;;;;;;;;;;;;13.28;80.68;96841.12;30001;985;1863;-71
2021/08/03 00:58:49;;;;;;;;;;;;;;;13.27;81.04;96836.78;30001;982;1871;-73
2021/08/03 00:59:20;;;;;;;;;;;;;;;13.27;80.81;96836.78;30001;982;1880;-76
2021/08/03 00:59:51;;;;;;;;;;;;;;;13.26;80.78;96835.19;30001;982;1876;-75
2021/08/03 01:00:23;;;;;;;;;;;;;;;13.26;80.55;96837.09;30001;982;1880;-74
2021/08/03 01:00:55;;;;;;;;;;;;;;;13.24;80.68;96842.88;30001;982;1859;-74
2021/08/03 01:01:27;;;;;;;;;;;;;;;13.24;80.61;96837.41;30001;982;1876;-75
2021/08/03 01:01:58;;;;;;;;;;;;;;;13.26;80.65;96839.84;30001;983;1875;-74
2021/08/03 01:02:29;;;;;;;;;;;;;;;13.25;80.59;96839.03;30001;983;1880;-74
2021/08/03 01:03:00;;;;;;;;;;;;;;;13.26;80.50;96840.63;30001;983;1875;-71
2021/08/03 01:03:32;;;;;;;;;;;;;;;13.25;80.48;96836.31;30001;983;1880;-72
2021/08/03 01:04:05;;;;;;;;;;;;;;;13.26;80.82;96840.63;30001;983;1876;-72
2021/08/03 01:04:36;;;;;;;;;;;;;;;13.26;80.82;96839.84;30001;983;1880;-72
2021/08/03 01:05:07;;;;;;;;;;;;;;;13.25;81.44;96844.47;30001;983;1876;-72
2021/08/03 01:05:48;;;;;;;;;;;;;;;13.25;81.18;96839.03;30001;983;1863;-72
2021/08/03 01:06:36;;;;;;;;;;;;;;;13.25;81.22;96839.03;30001;982;1871;-72
2021/08/03 01:07:16;;;;;;;;;;;;;;;13.27;81.04;96842.25;30001;982;1863;-71
2021/08/03 01:08:17;;;;;;;;;;;;;;;13.29;81.06;96848.19;30001;982;1872;-66
2021/08/03 01:09:02;;;;;;;;;;;;;;;13.30;81.20;96854.44;30001;986;1872;-69
2021/08/03 01:09:48;;;;;;;;;;;;;;;13.29;81.00;96845.47;30001;983;1875;-72
2021/08/03 01:10:31;;;;;;;;;;;;;;;13.30;81.28;96844.34;30001;983;1875;-71
2021/08/03 01:11:12;;;;;;;;;;;;;;;13.28;81.17;96843.84;30001;983;1880;-73
2021/08/03 01:11:48;;;;;;;;;;;;;;;13.29;81.17;96845.47;30001;983;1858;-70
2021/08/03 01:12:24;;;;;;;;;;;;;;;13.29;81.06;96850.12;30001;983;1875;-73
2021/08/03 01:13:05;;;;;;;;;;;;;;;13.30;80.85;96852.53;30001;983;1875;-71
2021/08/03 01:13:49;;;;;;;;;;;;;;;13.29;80.96;96845.47;30001;985;1872;-71
2021/08/03 01:14:39;;;;;;;;;;;;;;;13.30;81.16;96852.53;30001;987;1880;-73
2021/08/03 01:15:15;;;;;;;;;;;;;;;13.30;81.02;96852.53;30001;982;1859;-75
2021/08/03 01:15:58;;;;;;;;;;;;;;;13.31;81.13;96850.59;30001;982;1881;-72
2021/08/03 01:16:34;;;;;;;;;;;;;;;13.32;80.96;96850.28;30001;982;1863;-72
2021/08/03 01:17:19;;;;;;;;;;;;;;;13.33;80.85;96846.47;30001;983;1880;-76
2021/08/03 01:18:24;;;;;;;;;;;;;;;13.35;80.45;96846.16;30001;983;1880;-72
2021/08/03 01:19:00;;;;;;;;;;;;;;;13.35;80.11;96846.94;30001;983;1785;-63
2021/08/03 01:19:51;;;;;;;;;;;;;;;13.36;80.51;96845.84;30001;983;1880;-73
2021/08/03 01:20:38;;;;;;;;;;;;;;;13.36;80.54;96840.38;30001;965;1805;-74
2021/08/03 01:21:39;;;;;;;;;;;;;;;13.35;80.60;96838.78;30001;982;1863;-70
2021/08/03 01:22:36;;;;;;;;;;;;;;;13.33;80.77;96846.47;30001;982;1858;-71
2021/08/03 01:23:25;;;;;;;;;;;;;;;13.31;80.67;96843.25;30001;982;1876;-72
2021/08/03 01:24:14;;;;;;;;;;;;;;;13.31;80.74;96843.25;30001;982;1885;-71
2021/08/03 01:25:04;;;;;;;;;;;;;;;13.32;80.65;96850.28;30001;983;1871;-71
2021/08/03 01:25:40;;;;;;;;;;;;;;;13.33;80.44;96851.09;30001;983;1862;-71
2021/08/03 01:26:23;;;;;;;;;;;;;;;13.31;80.32;96851.41;30001;983;1876;-72
2021/08/03 01:27:16;;;;;;;;;;;;;;;13.32;80.37;96844.03;30001;985;1876;-74
2021/08/03 01:28:10;;;;;;;;;;;;;;;13.31;80.49;96856.84;30001;983;1885;-71
2021/08/03 01:28:46;;;;;;;;;;;;;;;13.31;80.62;96848.69;30001;982;1880;-71
2021/08/03 01:29:18;;;;;;;;;;;;;;;13.30;80.65;96847.06;30001;982;1867;-72
2021/08/03 01:29:50;;;;;;;;;;;;;;;13.30;80.60;96852.53;30001;982;1876;-72
2021/08/03 01:30:22;;;;;;;;;;;;;;;13.30;80.62;96847.06;30001;982;1885;-71
2021/08/03 01:31:06;;;;;;;;;;;;;;;13.29;81.14;96848.19;30001;982;1880;-70
2021/08/03 01:31:40;;;;;;;;;;;;;;;13.27;80.95;96850.41;30001;983;1884;-75
2021/08/03 01:32:13;;;;;;;;;;;;;;;13.28;80.75;96849.31;30001;983;1880;-72
2021/08/03 01:32:45;;;;;;;;;;;;;;;13.27;80.77;96847.69;30001;983;1884;-70
2021/08/03 01:33:21;;;;;;;;;;;;;;;13.27;80.98;96847.69;30001;983;1880;-72
2021/08/03 01:33:59;;;;;;;;;;;;;;;13.25;80.84;96849.94;30001;983;1884;-72
2021/08/03 01:34:36;;;;;;;;;;;;;;;13.24;81.23;96848.31;30001;983;1863;-73
2021/08/03 01:35:08;;;;;;;;;;;;;;;13.23;80.88;96846.72;30001;983;1880;-64
2021/08/03 01:35:41;;;;;;;;;;;;;;;13.23;80.68;96845.91;30001;983;1880;-71
2021/08/03 01:36:12;;;;;;;;;;;;;;;13.21;81.12;96843.47;30001;982;1885;-71
2021/08/03 01:36:46;;;;;;;;;;;;;;;13.20;81.09;96844.59;30001;982;1880;-70
2021/08/03 01:37:18;;;;;;;;;;;;;;;13.20;81.11;96841.88;30001;982;1885;-72
2021/08/03 01:37:51;;;;;;;;;;;;;;;13.20;81.15;96847.31;30001;982;1863;-72
2021/08/03 01:38:23;;;;;;;;;;;;;;;13.19;81.02;96851.16;30001;982;1880;-70
2021/08/03 01:38:55;;;;;;;;;;;;;;;13.18;81.30;96844.09;30001;983;1880;-68
2021/08/03 01:39:35;;;;;;;;;;;;;;;13.17;81.03;96842.50;30001;983;1884;-73
2021/08/03 01:40:08;;;;;;;;;;;;;;;13.16;81.20;96846.37;30001;983;1880;-71
2021/08/03 01:40:42;;;;;;;;;;;;;;;13.14;81.01;96840.38;30001;983;1884;-72
2021/08/03 01:41:14;;;;;;;;;;;;;;;13.13;81.51;96846.94;30001;983;1880;-72
2021/08/03 01:41:48;;;;;;;;;;;;;;;13.13;81.51;96846.16;30001;983;1885;-72
2021/08/03 01:42:20;;;;;;;;;;;;;;;13.11;81.55;96843.72;30001;983;1863;-73
2021/08/03 01:42:51;;;;;;;;;;;;;;;13.10;81.36;96844.84;30001;983;1880;-72
2021/08/03 01:43:22;;;;;;;;;;;;;;;13.10;81.54;96842.12;30001;983;1880;-74
2021/08/03 01:43:58;;;;;;;;;;;;;;;13.11;81.47;96842.91;30001;982;1885;-74
2021/08/03 01:44:30;;;;;;;;;;;;;;;13.09;81.25;96845.97;30001;982;1880;-71
2021/08/03 01:45:02;;;;;;;;;;;;;;;13.10;81.54;96847.56;30001;982;1885;-71
2021/08/03 01:45:34;;;;;;;;;;;;;;;13.07;81.85;96848.19;30001;982;1881;-72
2021/08/03 01:46:06;;;;;;;;;;;;;;;13.06;81.87;96836.47;30001;983;1884;-70
2021/08/03 01:46:39;;;;;;;;;;;;;;;13.08;81.58;96847.06;30001;983;1824;-73
2021/08/03 01:47:10;;;;;;;;;;;;;;;13.08;81.75;96849.78;30001;983;1880;-71
2021/08/03 01:47:41;;;;;;;;;;;;;;;13.08;81.81;96842.44;30001;983;1880;-75
2021/08/03 01:48:13;;;;;;;;;;;;;;;13.07;81.89;96845.47;30001;983;1884;-73
2021/08/03 01:48:46;;;;;;;;;;;;;;;13.06;81.80;96841.12;30001;983;1880;-71
2021/08/03 01:49:19;;;;;;;;;;;;;;;13.05;81.86;96839.50;30001;983;1884;-70
2021/08/03 01:49:50;;;;;;;;;;;;;;;13.04;82.23;96833.25;30001;983;1880;-71
2021/08/03 01:50:22;;;;;;;;;;;;;;;13.04;82.26;96837.91;30001;983;1867;-71
2021/08/03 01:50:55;;;;;;;;;;;;;;;13.03;82.09;96839.81;30001;983;1876;-70
2021/08/03 01:51:27;;;;;;;;;;;;;;;13.04;82.14;96840.63;30001;982;1885;-71
2021/08/03 01:51:59;;;;;;;;;;;;;;;13.04;82.11;96843.34;30001;973;1872;-71
2021/08/03 01:52:31;;;;;;;;;;;;;;;13.05;81.85;96844.97;30001;982;1880;-72
2021/08/03 01:53:03;;;;;;;;;;;;;;;13.03;81.78;96834.38;30001;982;1881;-71
2021/08/03 01:53:34;;;;;;;;;;;;;;;13.04;81.71;96837.91;30001;983;1884;-72
2021/08/03 01:54:06;;;;;;;;;;;;;;;13.05;81.56;96834.06;30001;983;1862;-70
2021/08/03 01:54:37;;;;;;;;;;;;;;;13.05;81.52;96834.06;30001;983;1880;-71
2021/08/03 01:55:09;;;;;;;;;;;;;;;13.06;81.27;96841.12;30001;983;1880;-72
2021/08/03 01:55:41;;;;;;;;;;;;;;;13.07;81.36;96840.81;30001;983;1867;-73
2021/08/03 01:56:12;;;;;;;;;;;;;;;13.07;81.34;96842.72;30001;983;1876;-75
2021/08/03 01:56:44;;;;;;;;;;;;;;;13.07;81.48;96837.28;30001;983;1884;-72
2021/08/03 01:57:15;;;;;;;;;;;;;;;13.06;81.24;96835.69;30001;983;1880;-74
2021/08/03 01:57:46;;;;;;;;;;;;;;;13.07;81.40;96837.28;30001;983;1885;-76
2021/08/03 01:58:19;;;;;;;;;;;;;;;13.07;81.21;96831.84;30001;986;1880;-72
2021/08/03 01:58:51;;;;;;;;;;;;;;;13.07;81.10;96838.09;30001;982;1885;-71
2021/08/03 01:59:22;;;;;;;;;;;;;;;13.08;80.72;96833.44;30001;982;1881;-72
2021/08/03 01:59:54;;;;;;;;;;;;;;;13.07;80.91;96831.84;30001;982;1885;-76
2021/08/03 02:00:25;;;;;;;;;;;;;;;13.08;80.71;96830.72;30001;982;1881;-73
2021/08/03 02:00:57;;;;;;;;;;;;;;;13.08;80.63;96828.00;30001;982;1867;-74
2021/08/03 02:01:28;;;;;;;;;;;;;;;13.08;80.78;96838.91;30001;983;1875;-73
2021/08/03 02:02:00;;;;;;;;;;;;;;;13.06;80.81;96820.13;30001;983;1884;-71
2021/08/03 02:02:31;;;;;;;;;;;;;;;13.06;80.69;96828.31;30001;983;1880;-73
2021/08/03 02:03:02;;;;;;;;;;;;;;;13.06;80.96;96822.06;30001;983;1884;-74
2021/08/03 02:03:34;;;;;;;;;;;;;;;13.05;80.97;96823.16;30001;983;1880;-71
2021/08/03 02:04:06;;;;;;;;;;;;;;;13.06;81.11;96827.50;30001;983;1867;-67
2021/08/03 02:04:38;;;;;;;;;;;;;;;13.06;80.81;96824.78;30001;983;1858;-73
2021/08/03 02:05:09;;;;;;;;;;;;;;;13.06;81.08;96825.59;30001;983;1885;-73
2021/08/03 02:05:42;;;;;;;;;;;;;;;13.07;81.07;96826.38;30001;982;1880;-73
2021/08/03 02:06:15;;;;;;;;;;;;;;;13.05;81.08;96823.97;30001;982;1885;-72
2021/08/03 02:06:47;;;;;;;;;;;;;;;13.06;80.93;96822.06;30001;982;1863;-70
2021/08/03 02:07:19;;;;;;;;;;;;;;;13.05;81.10;96828.63;30001;982;1880;-74
2021/08/03 02:07:50;;;;;;;;;;;;;;;13.06;80.91;96827.50;30001;982;1881;-71
2021/08/03 02:08:22;;;;;;;;;;;;;;;13.05;80.93;96823.16;30001;982;1885;-74
2021/08/03 02:08:55;;;;;;;;;;;;;;;13.05;80.97;96828.63;30001;983;1880;-73
2021/08/03 02:09:26;;;;;;;;;;;;;;;13.05;80.95;96828.63;30001;983;1884;-73
2021/08/03 02:09:57;;;;;;;;;;;;;;;13.05;81.10;96825.91;30001;983;1880;-72
2021/08/03 02:10:29;;;;;;;;;;;;;;;13.07;81.01;96829.13;30001;983;1867;-73
2021/08/03 02:11:00;;;;;;;;;;;;;;;13.07;80.75;96831.84;30001;983;1876;-75
2021/08/03 02:11:34;;;;;;;;;;;;;;;13.07;80.88;96829.13;30001;983;1885;-71
2021/08/03 02:12:06;;;;;;;;;;;;;;;13.08;80.98;96830.72;30001;983;1880;-71
2021/08/03 02:12:37;;;;;;;;;;;;;;;13.08;81.06;96833.44;30001;983;1884;-71
2021/08/03 02:13:08;;;;;;;;;;;;;;;13.08;81.18;96833.44;30001;982;1880;-74
2021/08/03 02:13:39;;;;;;;;;;;;;;;13.06;81.22;96831.03;30001;982;1885;-72
2021/08/03 02:14:09;;;;;;;;;;;;;;;13.07;81.29;96829.13;30001;982;1880;-72
2021/08/03 02:14:46;;;;;;;;;;;;;;;13.08;81.04;96833.44;30001;982;1867;-72
2021/08/03 02:15:18;;;;;;;;;;;;;;;13.07;81.05;96829.13;30001;986;1867;-75
2021/08/03 02:15:49;;;;;;;;;;;;;;;13.07;81.25;96838.09;30001;982;1885;-72
2021/08/03 02:16:20;;;;;;;;;;;;;;;13.06;81.08;96836.47;30001;983;1880;-72
2021/08/03 02:16:51;;;;;;;;;;;;;;;13.06;81.09;96830.22;30001;983;1884;-67
2021/08/03 02:17:24;;;;;;;;;;;;;;;13.07;80.98;96837.28;30001;983;1880;-73
2021/08/03 02:17:55;;;;;;;;;;;;;;;13.08;80.91;96836.16;30001;983;1884;-72
2021/08/03 02:18:26;;;;;;;;;;;;;;;13.06;80.87;96825.59;30001;983;1862;-72
2021/08/03 02:18:57;;;;;;;;;;;;;;;13.06;81.07;96831.03;30001;983;1880;-72
2021/08/03 02:19:28;;;;;;;;;;;;;;;13.08;80.70;96834.25;30001;983;1880;-73
2021/08/03 02:19:59;;;;;;;;;;;;;;;13.09;80.51;96826.88;30001;983;1884;-71
2021/08/03 02:20:29;;;;;;;;;;;;;;;13.10;80.34;96825.78;30001;982;1880;-74
2021/08/03 02:21:00;;;;;;;;;;;;;;;13.12;80.41;96822.75;30001;982;1885;-75
2021/08/03 02:21:31;;;;;;;;;;;;;;;13.13;80.15;96832.53;30001;982;1880;-74
2021/08/03 02:22:03;;;;;;;;;;;;;;;13.13;80.46;96829.78;30001;982;1885;-75
2021/08/03 02:22:34;;;;;;;;;;;;;;;13.16;80.40;96829.22;30001;982;1881;-74
2021/08/03 02:23:05;;;;;;;;;;;;;;;13.15;80.14;96828.38;30001;982;1868;-72
2021/08/03 02:23:36;;;;;;;;;;;;;;;13.16;80.05;96829.22;30001;982;1876;-74
2021/08/03 02:24:07;;;;;;;;;;;;;;;13.17;80.01;96831.59;30001;983;1884;-74
2021/08/03 02:24:39;;;;;;;;;;;;;;;13.17;80.00;96820.69;30001;983;1880;-73
2021/08/03 02:25:10;;;;;;;;;;;;;;;13.15;80.16;96822.94;30001;983;1884;-72
2021/08/03 02:25:42;;;;;;;;;;;;;;;13.15;80.16;96828.38;30001;983;1880;-73
2021/08/03 02:26:13;;;;;;;;;;;;;;;13.16;80.20;96819.12;30001;983;1884;-71
2021/08/03 02:26:44;;;;;;;;;;;;;;;13.18;80.28;96824.22;30001;983;1880;-72
2021/08/03 02:27:15;;;;;;;;;;;;;;;13.18;80.31;96821.50;30001;983;1884;-72
2021/08/03 02:27:45;;;;;;;;;;;;;;;13.17;80.26;96815.25;30001;983;1863;-72
2021/08/03 02:28:16;;;;;;;;;;;;;;;13.16;80.30;96821.84;30001;982;1880;-74
2021/08/03 02:28:47;;;;;;;;;;;;;;;13.14;80.40;96821.31;30001;982;1880;-74
2021/08/03 02:29:18;;;;;;;;;;;;;;;13.12;80.62;96818.09;30001;982;1885;-71
2021/08/03 02:29:49;;;;;;;;;;;;;;;13.13;80.27;96825.16;30001;982;1880;-75
2021/08/03 02:30:21;;;;;;;;;;;;;;;13.14;80.41;96824.03;30001;982;1885;-71
2021/08/03 02:30:55;;;;;;;;;;;;;;;13.11;80.35;96813.75;30001;982;1880;-74
2021/08/03 02:31:39;;;;;;;;;;;;;;;13.11;80.51;96819.22;30001;983;1884;-75
2021/08/03 02:32:17;;;;;;;;;;;;;;;13.12;80.43;96811.84;30001;983;1880;-73
2021/08/03 02:32:57;;;;;;;;;;;;;;;13.10;80.44;96814.87;30001;983;1866;-75
2021/08/03 02:33:30;;;;;;;;;;;;;;;13.08;80.60;96803.47;30001;983;1875;-74
2021/08/03 02:34:09;;;;;;;;;;;;;;;13.07;80.48;96810.03;30001;983;1885;-72
2021/08/03 02:34:44;;;;;;;;;;;;;;;13.06;80.49;96805.72;30001;983;1880;-76
2021/08/03 02:35:17;;;;;;;;;;;;;;;13.07;80.89;96810.03;30001;983;1885;-73
2021/08/03 02:35:51;;;;;;;;;;;;;;;13.07;80.81;96804.59;30001;982;1881;-73
2021/08/03 02:36:24;;;;;;;;;;;;;;;13.07;80.63;96805.41;30001;982;1868;-74
2021/08/03 02:36:59;;;;;;;;;;;;;;;13.08;80.70;96808.94;30001;982;1876;-74
2021/08/03 02:37:35;;;;;;;;;;;;;;;13.07;80.65;96802.69;30001;982;1885;-74
2021/08/03 02:38:09;;;;;;;;;;;;;;;13.06;80.57;96806.53;30001;983;1880;-77
2021/08/03 02:38:42;;;;;;;;;;;;;;;13.09;80.59;96803.19;30001;983;1884;-75
2021/08/03 02:39:13;;;;;;;;;;;;;;;13.12;80.48;96800.94;30001;983;1862;-75
2021/08/03 02:39:46;;;;;;;;;;;;;;;13.10;80.36;96803.97;30001;983;1880;-73
2021/08/03 02:40:17;;;;;;;;;;;;;;;13.08;80.33;96798.03;30001;983;1880;-75
2021/08/03 02:40:48;;;;;;;;;;;;;;;13.05;80.51;96795.94;30001;983;1884;-73
2021/08/03 02:41:19;;;;;;;;;;;;;;;13.04;80.66;96794.31;30001;983;1880;-75
2021/08/03 02:41:51;;;;;;;;;;;;;;;13.03;80.70;96798.16;30001;983;1885;-64
2021/08/03 02:42:23;;;;;;;;;;;;;;;13.03;80.72;96798.16;30001;983;1880;-73
2021/08/03 02:42:54;;;;;;;;;;;;;;;13.01;80.58;96794.94;30001;983;1884;-74
2021/08/03 02:43:26;;;;;;;;;;;;;;;13.00;80.86;96799.59;30001;982;1880;-71
2021/08/03 02:43:58;;;;;;;;;;;;;;;13.00;81.20;96793.31;30001;982;1867;-75
2021/08/03 02:44:30;;;;;;;;;;;;;;;13.00;80.83;96796.84;30001;982;1876;-73
2021/08/03 02:45:02;;;;;;;;;;;;;;;12.99;80.88;96792.53;30001;982;1885;-74
2021/08/03 02:45:34;;;;;;;;;;;;;;;13.00;81.09;96793.31;30001;982;1881;-73
2021/08/03 02:46:05;;;;;;;;;;;;;;;13.00;81.02;96796.06;30001;983;1867;-75
2021/08/03 02:46:39;;;;;;;;;;;;;;;13.00;80.87;96796.06;30001;983;1875;-74
2021/08/03 02:47:26;;;;;;;;;;;;;;;13.01;80.82;96800.37;30001;983;1884;-73
2021/08/03 02:48:09;;;;;;;;;;;;;;;12.98;80.95;96795.56;30001;983;1880;-74
2021/08/03 02:48:41;;;;;;;;;;;;;;;12.96;80.90;96790.41;30001;983;1867;-74
2021/08/03 02:49:15;;;;;;;;;;;;;;;12.95;81.07;96793.44;30001;983;1876;-65
2021/08/03 02:49:48;;;;;;;;;;;;;;;12.93;81.05;96792.97;30001;983;1884;-74
2021/08/03 02:50:21;;;;;;;;;;;;;;;12.93;81.03;96798.41;30001;983;1880;-74
2021/08/03 02:50:52;;;;;;;;;;;;;;;12.94;80.99;96794.56;30001;982;1885;-74
2021/08/03 02:51:23;;;;;;;;;;;;;;;12.94;81.03;96797.28;30001;982;1863;-64
2021/08/03 02:51:54;;;;;;;;;;;;;;;12.94;81.06;96794.56;30001;982;1880;-75
2021/08/03 02:52:28;;;;;;;;;;;;;;;12.94;81.09;96789.12;30001;987;1871;-70
2021/08/03 02:53:02;;;;;;;;;;;;;;;12.95;80.98;96788.00;30001;982;1885;-74
2021/08/03 02:53:45;;;;;;;;;;;;;;;12.96;81.05;96792.34;30001;983;1880;-74
2021/08/03 02:54:36;;;;;;;;;;;;;;;12.96;80.81;96797.78;30001;983;1884;-74
2021/08/03 02:55:32;;;;;;;;;;;;;;;12.94;80.83;96791.84;30001;983;1858;-76
2021/08/03 02:56:06;;;;;;;;;;;;;;;12.98;80.78;96795.56;30001;983;1862;-75
2021/08/03 02:56:38;;;;;;;;;;;;;;;13.01;80.65;96794.94;30001;983;1880;-71
2021/08/03 02:57:11;;;;;;;;;;;;;;;13.01;80.55;96792.22;30001;983;1884;-76
2021/08/03 02:57:44;;;;;;;;;;;;;;;13.06;80.22;96797.53;30001;983;1880;-70
2021/08/03 02:58:18;;;;;;;;;;;;;;;13.04;80.16;96786.16;30001;982;1885;-74
2021/08/03 02:58:52;;;;;;;;;;;;;;;13.04;80.38;96794.31;30001;982;1880;-79
2021/08/03 02:59:26;;;;;;;;;;;;;;;13.03;80.38;96795.44;30001;982;1885;-80
2021/08/03 02:59:59;;;;;;;;;;;;;;;13.03;80.42;96790.78;30001;982;1881;-76
2021/08/03 03:00:33;;;;;;;;;;;;;;;13.01;80.44;96795.75;30001;982;1885;-75